KLNR/LNR METAR and TAF weather

Enter ICAO airport designator
Station Type Date Time Source
KLNR METAR 2020/04/03 07:56 UTC NOAA

KLNR 030756Z AUTO 10007KT 10SM OVC070 11/07 A3003 RMK AO2 RAE02 SLP164 P0000 T01060067


Station Type Date Time Source
KLNR Decoded METAR 2020/04/03 07:56 UTC NOAA

LONE ROCK TRI-COUNTY REG, WI, United States (KLNR) 43-13N 090-11W 217M
Apr 03, 2020 - 03:56 AM EDT / 2020.04.03 0756 UTC
Wind: from the E (100 degrees) at 8 MPH (7 KT):0
Visibility: 10 mile(s):0
Sky conditions: overcast
Precipitation last hour: A trace
Temperature: 51.1 F (10.6 C)
Dew Point: 44.1 F (6.7 C)
Relative Humidity: 76%
Pressure (altimeter): 30.03 in. Hg (1016 hPa)
ob: KLNR 030756Z AUTO 10007KT 10SM OVC070 11/07 A3003 RMK AO2 RAE02 SLP164 P0000 T01060067
cycle: 8

Station Type Date Time Source
KLNR TAF UTC NOAA

Error!

Example: see airport list